Wetterdaten: aktuell Donnerstag, 06.05.2021 23:00
Datum Zeit Temp. A. Feuchte A. Luftdruck Regen Wind Richtung Richtung Sonnenschein ET UV Solar Taupunkt Windchill Windben
06.05.2021 23:00 4,2 C 96 % 1007,9 hPa 0,0 l/m 6,3 km/h (2 Bft) W-SW 252 0 min 0,000 mm 0,0 UV-I 0 W/m 3,6 C 4,2 C 11,3 km/h (2 Bft)
06.05.2021 22:00 3,6 C 95 % 1007,4 hPa 0,0 l/m 5,5 km/h (2 Bft) W 261 0 min 0,000 mm 0,0 UV-I 0 W/m 2,9 C 3,6 C 11,3 km/h (2 Bft)
06.05.2021 21:00 5,4 C 93 % 1006,2 hPa 0,0 l/m 4,3 km/h (1 Bft) W-NW 292 0 min 0,025 mm 0,0 UV-I 5 W/m 4,4 C 5,4 C 8,0 km/h (2 Bft)
06.05.2021 20:00 5,8 C 94 % 1004,5 hPa 0,2 l/m 6,4 km/h (2 Bft) N-NO 28 0 min 0,026 mm 0,0 UV-I 58 W/m 4,9 C 5,8 C 9,7 km/h (2 Bft)
06.05.2021 19:00 5,8 C 95 % 1003,9 hPa 1,2 l/m 10,7 km/h (2 Bft) NO 49 0 min 0,025 mm 0,0 UV-I 109 W/m 5,1 C 2,5 C 16,1 km/h (3 Bft)
06.05.2021 18:00 6,4 C 95 % 1003,6 hPa 1,8 l/m 10,1 km/h (2 Bft) N-NO 26 0 min 0,051 mm 0,0 UV-I 31 W/m 5,7 C 3,6 C 14,5 km/h (3 Bft)
06.05.2021 17:00 6,7 C 94 % 1003,6 hPa 1,6 l/m 7,1 km/h (2 Bft) O-NO 65 0 min 0,051 mm 0,0 UV-I 81 W/m 5,8 C 6,1 C 9,7 km/h (2 Bft)
06.05.2021 16:00 6,8 C 92 % 1004,5 hPa 0,6 l/m 3,4 km/h (1 Bft) SO 136 0 min 0,076 mm 0,7 UV-I 109 W/m 5,6 C 6,8 C 4,8 km/h (1 Bft)
06.05.2021 15:00 6,9 C 92 % 1005,5 hPa 1,2 l/m 6,1 km/h (2 Bft) SO 132 0 min 0,076 mm 1,3 UV-I 219 W/m 5,7 C 6,9 C 11,3 km/h (2 Bft)
06.05.2021 14:00 7,0 C 86 % 1006,4 hPa 0,2 l/m 3,8 km/h (1 Bft) S-SW 198 0 min 0,127 mm 0,5 UV-I 81 W/m 4,8 C 7,0 C 6,4 km/h (2 Bft)
06.05.2021 13:00 7,9 C 78 % 1007,3 hPa 0,0 l/m 11,7 km/h (2 Bft) SW 223 0 min 0,127 mm 1,1 UV-I 166 W/m 4,3 C 4,3 C 17,7 km/h (3 Bft)
06.05.2021 12:00 7,8 C 78 % 1008,1 hPa 0,0 l/m 14,0 km/h (3 Bft) W 262 0 min 0,178 mm 1,3 UV-I 208 W/m 4,2 C 2,9 C 19,3 km/h (3 Bft)
06.05.2021 11:00 7,9 C 78 % 1008,7 hPa 0,0 l/m 11,7 km/h (2 Bft) SW 229 18 min 0,127 mm 2,0 UV-I 359 W/m 4,3 C 4,3 C 16,1 km/h (3 Bft)
06.05.2021 10:00 6,9 C 85 % 1009,0 hPa 0,0 l/m 14,3 km/h (3 Bft) W-SW 246 15 min 0,127 mm 1,3 UV-I 294 W/m 4,6 C 1,7 C 20,9 km/h (4 Bft)
06.05.2021 09:00 6,0 C 90 % 1009,2 hPa 0,0 l/m 12,9 km/h (3 Bft) W-SW 250 24 min 0,051 mm 0,8 UV-I 210 W/m 4,5 C 1,4 C 17,7 km/h (3 Bft)
06.05.2021 08:00 5,1 C 94 % 1009,4 hPa 0,0 l/m 8,4 km/h (2 Bft) W-SW 250 6 min 0,000 mm 0,5 UV-I 287 W/m 4,2 C 3,4 C 12,9 km/h (3 Bft)
06.05.2021 07:00 4,0 C 95 % 1009,5 hPa 0,0 l/m 8,5 km/h (2 Bft) SW 229 0 min 0,000 mm 0,0 UV-I 19 W/m 3,3 C 2,1 C 14,5 km/h (3 Bft)
06.05.2021 06:00 3,8 C 95 % 1009,8 hPa 0,4 l/m 8,6 km/h (2 Bft) W-SW 247 0 min 0,000 mm 0,0 UV-I 0 W/m 3,1 C 1,8 C 14,5 km/h (3 Bft)
06.05.2021 05:00 2,4 C 96 % 1010,2 hPa 0,0 l/m 4,8 km/h (1 Bft) W-SW 244 0 min 0,000 mm 0,0 UV-I 0 W/m 1,8 C 2,4 C 6,4 km/h (2 Bft)
06.05.2021 04:00 2,2 C 96 % 1010,7 hPa 0,0 l/m 6,2 km/h (2 Bft) W-SW 252 0 min 0,000 mm 0,0 UV-I 0 W/m 1,6 C 2,2 C 8,0 km/h (2 Bft)
06.05.2021 03:00 0,4 C 95 % 1011,1 hPa 0,0 l/m 0,2 km/h (0 Bft) SW 232 0 min 0,000 mm 0,0 UV-I 0 W/m -0,3 C 0,4 C 1,6 km/h (1 Bft)
06.05.2021 02:00 2,3 C 94 % 1011,4 hPa 0,0 l/m 3,1 km/h (1 Bft) SW 232 0 min 0,025 mm 0,0 UV-I 0 W/m 1,4 C 2,3 C 6,4 km/h (2 Bft)
06.05.2021 01:00 3,6 C 92 % 1011,8 hPa 2,6 l/m 5,7 km/h (2 Bft) SW 235 0 min 0,025 mm 0,0 UV-I 0 W/m 2,4 C 3,6 C 8,0 km/h (2 Bft)
06.05.2021 00:00 5,2 C 86 % 1012,2 hPa 0,0 l/m 11,9 km/h (2 Bft) W 259 0 min 0,000 mm 0,0 UV-I 0 W/m 3,1 C 1,0 C 17,7 km/h (3 Bft)
_ Min-Zeit 03:21 11:12 17:45 - 02:51 - - - - - - 03:21 00:21 02:51
Minimum _ 0,1 C 74 % 1003,4 hPa - 0,0 km/h (0 Bft) - - - - - - -0,6 C -3,7 C 0,0 km/h (0 Bft)
_ Max-Zeit 12:42 03:15 00:12 00:18 00:18 - - 07:57 11:03 12:33 10:12 15:03 13:30 00:18
Maximum _ 8,4 C 96 % 1012,3 hPa 0,6 l/m 19,8 km/h
W-NW (3 Bft)
- - 3 min 0,178 mm 2,6 UV-I 762 W/m 5,9 C 7,9 C 30,6 km/h
W-NW (5 Bft)
Durchschnitt _ 5,2 C 91 % 1007,9 hPa #9,8 l/m 7,2 km/h (2 Bft) SW - #1:03 h #1,092 mm 1,1 UV-I 96 W/m 3,8 C 3,7 C 11,6 km/h (2 Bft)